sensor_id;sensor_type;location;lat;lon;timestamp;P1;durP1;ratioP1;P2;durP2;ratioP2
74867;SDS011;63419;42.262;12.210;2022-11-30T00:01:21;5.15;;;1.10;;
74867;SDS011;63419;42.262;12.210;2022-11-30T00:03:53;4.88;;;1.42;;
74867;SDS011;63419;42.262;12.210;2022-11-30T00:06:22;4.10;;;0.90;;
74867;SDS011;63419;42.262;12.210;2022-11-30T00:08:51;4.25;;;1.50;;
74867;SDS011;63419;42.262;12.210;2022-11-30T00:11:24;4.07;;;1.02;;
74867;SDS011;63419;42.262;12.210;2022-11-30T00:13:53;4.15;;;1.10;;
74867;SDS011;63419;42.262;12.210;2022-11-30T00:16:21;3.80;;;1.20;;
74867;SDS011;63419;42.262;12.210;2022-11-30T00:18:49;4.50;;;1.20;;
74867;SDS011;63419;42.262;12.210;2022-11-30T00:21:16;4.20;;;0.90;;
74867;SDS011;63419;42.262;12.210;2022-11-30T00:23:44;3.60;;;0.90;;
74867;SDS011;63419;42.262;12.210;2022-11-30T00:26:15;4.05;;;0.88;;
74867;SDS011;63419;42.262;12.210;2022-11-30T00:28:44;4.43;;;1.15;;
74867;SDS011;63419;42.262;12.210;2022-11-30T00:31:13;3.75;;;0.80;;
74867;SDS011;63419;42.262;12.210;2022-11-30T00:33:43;4.78;;;1.33;;
74867;SDS011;63419;42.262;12.210;2022-11-30T00:36:16;4.38;;;1.30;;
74867;SDS011;63419;42.262;12.210;2022-11-30T00:38:46;4.13;;;1.23;;
74867;SDS011;63419;42.262;12.210;2022-11-30T00:41:16;4.53;;;1.25;;
74867;SDS011;63419;42.262;12.210;2022-11-30T00:43:45;4.18;;;0.90;;
74867;SDS011;63419;42.262;12.210;2022-11-30T00:46:13;4.90;;;1.20;;
74867;SDS011;63419;42.262;12.210;2022-11-30T00:51:09;4.75;;;1.50;;
74867;SDS011;63419;42.262;12.210;2022-11-30T00:53:37;4.82;;;1.00;;
74867;SDS011;63419;42.262;12.210;2022-11-30T00:56:06;4.82;;;1.52;;
74867;SDS011;63419;42.262;12.210;2022-11-30T00:58:35;6.20;;;1.27;;
74867;SDS011;63419;42.262;12.210;2022-11-30T01:01:02;6.13;;;1.73;;
74867;SDS011;63419;42.262;12.210;2022-11-30T01:03:30;6.28;;;2.15;;
74867;SDS011;63419;42.262;12.210;2022-11-30T01:06:01;7.18;;;1.80;;
74867;SDS011;63419;42.262;12.210;2022-11-30T01:08:31;4.90;;;1.60;;
74867;SDS011;63419;42.262;12.210;2022-11-30T01:11:13;6.90;;;1.90;;
74867;SDS011;63419;42.262;12.210;2022-11-30T01:13:53;10.52;;;1.88;;
74867;SDS011;63419;42.262;12.210;2022-11-30T01:16:27;6.38;;;2.15;;
74867;SDS011;63419;42.262;12.210;2022-11-30T01:18:57;5.32;;;1.40;;
74867;SDS011;63419;42.262;12.210;2022-11-30T01:21:26;4.75;;;1.20;;
74867;SDS011;63419;42.262;12.210;2022-11-30T01:23:54;4.53;;;1.20;;
74867;SDS011;63419;42.262;12.210;2022-11-30T01:26:22;5.20;;;1.40;;
74867;SDS011;63419;42.262;12.210;2022-11-30T01:28:53;5.18;;;1.20;;
74867;SDS011;63419;42.262;12.210;2022-11-30T01:31:22;3.42;;;1.17;;
74867;SDS011;63419;42.262;12.210;2022-11-30T01:33:51;5.07;;;1.50;;
74867;SDS011;63419;42.262;12.210;2022-11-30T01:36:24;4.88;;;1.48;;
74867;SDS011;63419;42.262;12.210;2022-11-30T01:38:53;5.25;;;1.30;;
74867;SDS011;63419;42.262;12.210;2022-11-30T01:41:29;6.07;;;1.85;;
74867;SDS011;63419;42.262;12.210;2022-11-30T01:49:47;4.85;;;1.58;;
74867;SDS011;63419;42.262;12.210;2022-11-30T01:52:31;5.80;;;1.23;;
74867;SDS011;63419;42.262;12.210;2022-11-30T01:55:41;4.03;;;1.08;;
74867;SDS011;63419;42.262;12.210;2022-11-30T01:58:15;4.45;;;1.33;;
74867;SDS011;63419;42.262;12.210;2022-11-30T02:00:51;4.63;;;1.50;;
74867;SDS011;63419;42.262;12.210;2022-11-30T02:05:56;3.65;;;0.82;;
74867;SDS011;63419;42.262;12.210;2022-11-30T02:08:29;5.65;;;1.23;;
74867;SDS011;63419;42.262;12.210;2022-11-30T02:10:59;5.72;;;1.40;;
74867;SDS011;63419;42.262;12.210;2022-11-30T02:13:55;4.38;;;1.20;;
74867;SDS011;63419;42.262;12.210;2022-11-30T02:16:39;4.80;;;1.17;;
74867;SDS011;63419;42.262;12.210;2022-11-30T02:31:10;4.93;;;1.15;;
74867;SDS011;63419;42.262;12.210;2022-11-30T02:33:48;4.05;;;1.05;;
74867;SDS011;63419;42.262;12.210;2022-11-30T02:36:21;5.55;;;1.40;;
74867;SDS011;63419;42.262;12.210;2022-11-30T02:38:52;5.38;;;1.50;;
74867;SDS011;63419;42.262;12.210;2022-11-30T02:41:43;4.78;;;1.23;;
74867;SDS011;63419;42.262;12.210;2022-11-30T02:44:12;5.95;;;1.75;;
74867;SDS011;63419;42.262;12.210;2022-11-30T02:46:46;4.43;;;1.20;;
74867;SDS011;63419;42.262;12.210;2022-11-30T02:49:57;6.13;;;1.75;;
74867;SDS011;63419;42.262;12.210;2022-11-30T02:52:49;4.55;;;1.50;;
74867;SDS011;63419;42.262;12.210;2022-11-30T02:55:18;4.78;;;1.30;;
74867;SDS011;63419;42.262;12.210;2022-11-30T02:57:51;4.38;;;1.27;;
74867;SDS011;63419;42.262;12.210;2022-11-30T03:00:22;5.07;;;1.38;;
74867;SDS011;63419;42.262;12.210;2022-11-30T03:02:54;4.43;;;1.20;;
74867;SDS011;63419;42.262;12.210;2022-11-30T03:05:23;4.43;;;1.17;;
74867;SDS011;63419;42.262;12.210;2022-11-30T03:10:21;6.38;;;1.98;;
74867;SDS011;63419;42.262;12.210;2022-11-30T03:12:50;4.70;;;1.33;;
74867;SDS011;63419;42.262;12.210;2022-11-30T03:15:19;5.93;;;1.50;;
74867;SDS011;63419;42.262;12.210;2022-11-30T03:17:48;5.15;;;1.27;;
74867;SDS011;63419;42.262;12.210;2022-11-30T03:20:18;6.03;;;1.52;;
74867;SDS011;63419;42.262;12.210;2022-11-30T03:22:48;4.78;;;1.50;;
74867;SDS011;63419;42.262;12.210;2022-11-30T03:25:19;5.40;;;1.77;;
74867;SDS011;63419;42.262;12.210;2022-11-30T03:27:46;4.93;;;1.35;;
74867;SDS011;63419;42.262;12.210;2022-11-30T03:30:19;5.28;;;1.60;;
74867;SDS011;63419;42.262;12.210;2022-11-30T03:32:47;5.25;;;1.40;;
74867;SDS011;63419;42.262;12.210;2022-11-30T03:35:25;7.22;;;1.75;;
74867;SDS011;63419;42.262;12.210;2022-11-30T03:37:54;5.32;;;1.50;;
74867;SDS011;63419;42.262;12.210;2022-11-30T03:40:23;6.38;;;1.75;;
74867;SDS011;63419;42.262;12.210;2022-11-30T03:42:52;5.50;;;1.40;;
74867;SDS011;63419;42.262;12.210;2022-11-30T03:45:20;5.90;;;1.80;;
74867;SDS011;63419;42.262;12.210;2022-11-30T03:47:52;7.18;;;1.90;;
74867;SDS011;63419;42.262;12.210;2022-11-30T03:50:31;6.82;;;1.92;;
74867;SDS011;63419;42.262;12.210;2022-11-30T03:55:33;5.07;;;1.50;;
74867;SDS011;63419;42.262;12.210;2022-11-30T03:58:01;5.13;;;1.77;;
74867;SDS011;63419;42.262;12.210;2022-11-30T04:00:29;6.32;;;1.58;;
74867;SDS011;63419;42.262;12.210;2022-11-30T04:02:58;5.93;;;1.95;;
74867;SDS011;63419;42.262;12.210;2022-11-30T04:05:26;7.05;;;2.20;;
74867;SDS011;63419;42.262;12.210;2022-11-30T04:07:55;6.88;;;1.98;;
74867;SDS011;63419;42.262;12.210;2022-11-30T04:10:24;5.10;;;1.60;;
74867;SDS011;63419;42.262;12.210;2022-11-30T04:13:03;6.68;;;2.00;;
74867;SDS011;63419;42.262;12.210;2022-11-30T04:15:34;6.53;;;1.30;;
74867;SDS011;63419;42.262;12.210;2022-11-30T04:18:03;4.75;;;1.33;;
74867;SDS011;63419;42.262;12.210;2022-11-30T04:20:32;5.45;;;1.65;;
74867;SDS011;63419;42.262;12.210;2022-11-30T04:25:38;7.47;;;1.70;;
74867;SDS011;63419;42.262;12.210;2022-11-30T04:28:09;6.88;;;2.20;;
74867;SDS011;63419;42.262;12.210;2022-11-30T04:30:38;5.57;;;1.63;;
74867;SDS011;63419;42.262;12.210;2022-11-30T04:33:05;7.53;;;2.63;;
74867;SDS011;63419;42.262;12.210;2022-11-30T04:35:33;6.15;;;2.13;;
74867;SDS011;63419;42.262;12.210;2022-11-30T04:38:05;5.65;;;1.77;;
74867;SDS011;63419;42.262;12.210;2022-11-30T04:40:32;6.25;;;2.20;;
74867;SDS011;63419;42.262;12.210;2022-11-30T04:43:00;5.93;;;2.05;;
74867;SDS011;63419;42.262;12.210;2022-11-30T04:45:27;7.32;;;2.22;;
74867;SDS011;63419;42.262;12.210;2022-11-30T04:48:00;5.80;;;1.70;;
74867;SDS011;63419;42.262;12.210;2022-11-30T04:50:31;6.15;;;2.10;;
74867;SDS011;63419;42.262;12.210;2022-11-30T04:52:58;7.05;;;2.00;;
74867;SDS011;63419;42.262;12.210;2022-11-30T04:55:26;7.78;;;2.55;;
74867;SDS011;63419;42.262;12.210;2022-11-30T04:57:53;7.88;;;2.42;;
74867;SDS011;63419;42.262;12.210;2022-11-30T05:00:21;7.32;;;2.10;;
74867;SDS011;63419;42.262;12.210;2022-11-30T05:02:48;7.63;;;2.25;;
74867;SDS011;63419;42.262;12.210;2022-11-30T05:05:18;7.22;;;2.20;;
74867;SDS011;63419;42.262;12.210;2022-11-30T05:07:50;7.32;;;2.72;;
74867;SDS011;63419;42.262;12.210;2022-11-30T05:10:23;6.38;;;1.88;;
74867;SDS011;63419;42.262;12.210;2022-11-30T05:12:52;7.28;;;2.15;;
74867;SDS011;63419;42.262;12.210;2022-11-30T05:15:19;6.22;;;2.00;;
74867;SDS011;63419;42.262;12.210;2022-11-30T05:17:47;7.80;;;1.98;;
74867;SDS011;63419;42.262;12.210;2022-11-30T05:20:14;5.78;;;2.08;;
74867;SDS011;63419;42.262;12.210;2022-11-30T05:22:41;6.65;;;2.08;;
74867;SDS011;63419;42.262;12.210;2022-11-30T05:25:09;7.28;;;2.90;;
74867;SDS011;63419;42.262;12.210;2022-11-30T05:27:36;7.00;;;2.17;;
74867;SDS011;63419;42.262;12.210;2022-11-30T05:30:04;6.80;;;2.00;;
74867;SDS011;63419;42.262;12.210;2022-11-30T05:32:32;5.68;;;1.88;;
74867;SDS011;63419;42.262;12.210;2022-11-30T05:35:00;6.28;;;1.52;;
74867;SDS011;63419;42.262;12.210;2022-11-30T05:37:27;6.40;;;1.63;;
74867;SDS011;63419;42.262;12.210;2022-11-30T05:39:55;6.35;;;2.35;;
74867;SDS011;63419;42.262;12.210;2022-11-30T05:42:22;6.40;;;2.17;;
74867;SDS011;63419;42.262;12.210;2022-11-30T05:44:49;8.85;;;2.95;;
74867;SDS011;63419;42.262;12.210;2022-11-30T05:47:16;5.43;;;1.85;;
74867;SDS011;63419;42.262;12.210;2022-11-30T05:49:44;6.75;;;2.00;;
74867;SDS011;63419;42.262;12.210;2022-11-30T05:52:11;6.57;;;1.95;;
74867;SDS011;63419;42.262;12.210;2022-11-30T05:54:38;6.40;;;2.38;;
74867;SDS011;63419;42.262;12.210;2022-11-30T05:57:05;7.43;;;2.35;;
74867;SDS011;63419;42.262;12.210;2022-11-30T05:59:32;6.63;;;2.28;;
74867;SDS011;63419;42.262;12.210;2022-11-30T06:01:59;5.47;;;1.80;;
74867;SDS011;63419;42.262;12.210;2022-11-30T06:04:27;9.20;;;2.17;;
74867;SDS011;63419;42.262;12.210;2022-11-30T06:06:54;5.25;;;1.83;;
74867;SDS011;63419;42.262;12.210;2022-11-30T06:09:21;6.97;;;1.90;;
74867;SDS011;63419;42.262;12.210;2022-11-30T06:11:49;5.85;;;2.25;;
74867;SDS011;63419;42.262;12.210;2022-11-30T06:14:16;7.88;;;2.53;;
74867;SDS011;63419;42.262;12.210;2022-11-30T06:16:44;7.18;;;2.60;;
74867;SDS011;63419;42.262;12.210;2022-11-30T06:19:11;6.35;;;1.65;;
74867;SDS011;63419;42.262;12.210;2022-11-30T06:21:38;7.70;;;2.22;;
74867;SDS011;63419;42.262;12.210;2022-11-30T06:24:06;4.40;;;1.42;;
74867;SDS011;63419;42.262;12.210;2022-11-30T06:26:35;8.27;;;3.17;;
74867;SDS011;63419;42.262;12.210;2022-11-30T06:29:02;7.82;;;2.83;;
74867;SDS011;63419;42.262;12.210;2022-11-30T06:31:33;5.20;;;1.85;;
74867;SDS011;63419;42.262;12.210;2022-11-30T06:34:00;5.80;;;1.83;;
74867;SDS011;63419;42.262;12.210;2022-11-30T06:39:02;6.55;;;2.35;;
74867;SDS011;63419;42.262;12.210;2022-11-30T06:41:30;6.38;;;2.28;;
74867;SDS011;63419;42.262;12.210;2022-11-30T06:43:57;7.72;;;2.00;;
74867;SDS011;63419;42.262;12.210;2022-11-30T06:46:25;6.50;;;2.70;;
74867;SDS011;63419;42.262;12.210;2022-11-30T06:48:53;8.15;;;2.38;;
74867;SDS011;63419;42.262;12.210;2022-11-30T06:53:57;5.32;;;1.85;;
74867;SDS011;63419;42.262;12.210;2022-11-30T06:56:25;6.57;;;2.15;;
74867;SDS011;63419;42.262;12.210;2022-11-30T06:58:52;6.68;;;2.10;;
74867;SDS011;63419;42.262;12.210;2022-11-30T07:01:19;6.70;;;2.03;;
74867;SDS011;63419;42.262;12.210;2022-11-30T07:03:47;6.50;;;2.22;;
74867;SDS011;63419;42.262;12.210;2022-11-30T07:06:15;5.97;;;2.10;;
74867;SDS011;63419;42.262;12.210;2022-11-30T07:08:42;6.70;;;2.15;;
74867;SDS011;63419;42.262;12.210;2022-11-30T07:13:38;9.23;;;2.40;;
74867;SDS011;63419;42.262;12.210;2022-11-30T07:16:05;7.53;;;2.47;;
74867;SDS011;63419;42.262;12.210;2022-11-30T07:18:36;7.75;;;2.72;;
74867;SDS011;63419;42.262;12.210;2022-11-30T07:23:32;6.82;;;1.90;;
74867;SDS011;63419;42.262;12.210;2022-11-30T07:26:22;7.60;;;2.22;;
74867;SDS011;63419;42.262;12.210;2022-11-30T07:28:51;6.10;;;1.83;;
74867;SDS011;63419;42.262;12.210;2022-11-30T07:31:30;10.38;;;2.42;;
74867;SDS011;63419;42.262;12.210;2022-11-30T07:34:04;7.82;;;2.63;;
74867;SDS011;63419;42.262;12.210;2022-11-30T07:36:35;7.07;;;2.60;;
74867;SDS011;63419;42.262;12.210;2022-11-30T07:39:03;6.13;;;2.05;;
74867;SDS011;63419;42.262;12.210;2022-11-30T07:43:58;6.47;;;1.98;;
74867;SDS011;63419;42.262;12.210;2022-11-30T07:46:25;7.45;;;2.35;;
74867;SDS011;63419;42.262;12.210;2022-11-30T07:48:52;7.45;;;2.53;;
74867;SDS011;63419;42.262;12.210;2022-11-30T07:51:20;7.05;;;1.70;;
74867;SDS011;63419;42.262;12.210;2022-11-30T07:53:48;7.43;;;2.35;;
74867;SDS011;63419;42.262;12.210;2022-11-30T07:56:17;7.70;;;2.80;;
74867;SDS011;63419;42.262;12.210;2022-11-30T07:58:46;6.28;;;1.98;;
74867;SDS011;63419;42.262;12.210;2022-11-30T08:01:17;6.68;;;2.35;;
74867;SDS011;63419;42.262;12.210;2022-11-30T08:03:48;5.10;;;2.03;;
74867;SDS011;63419;42.262;12.210;2022-11-30T08:06:18;7.63;;;2.10;;
74867;SDS011;63419;42.262;12.210;2022-11-30T08:08:50;6.15;;;2.00;;
74867;SDS011;63419;42.262;12.210;2022-11-30T08:11:22;8.60;;;2.45;;
74867;SDS011;63419;42.262;12.210;2022-11-30T08:13:57;7.15;;;2.05;;
74867;SDS011;63419;42.262;12.210;2022-11-30T08:16:26;7.05;;;1.67;;
74867;SDS011;63419;42.262;12.210;2022-11-30T08:18:57;8.93;;;2.72;;
74867;SDS011;63419;42.262;12.210;2022-11-30T08:23:52;8.18;;;2.90;;
74867;SDS011;63419;42.262;12.210;2022-11-30T08:28:59;7.53;;;2.22;;
74867;SDS011;63419;42.262;12.210;2022-11-30T08:31:28;6.43;;;2.13;;
74867;SDS011;63419;42.262;12.210;2022-11-30T08:33:58;7.65;;;1.95;;
74867;SDS011;63419;42.262;12.210;2022-11-30T08:36:29;6.95;;;2.67;;
74867;SDS011;63419;42.262;12.210;2022-11-30T08:38:57;5.85;;;2.10;;
74867;SDS011;63419;42.262;12.210;2022-11-30T08:41:27;9.25;;;3.38;;
74867;SDS011;63419;42.262;12.210;2022-11-30T08:46:22;6.05;;;2.13;;
74867;SDS011;63419;42.262;12.210;2022-11-30T08:49:10;8.38;;;2.63;;
74867;SDS011;63419;42.262;12.210;2022-11-30T08:51:49;8.10;;;3.17;;
74867;SDS011;63419;42.262;12.210;2022-11-30T08:54:43;6.80;;;2.05;;
74867;SDS011;63419;42.262;12.210;2022-11-30T08:57:17;7.68;;;2.28;;
74867;SDS011;63419;42.262;12.210;2022-11-30T08:59:46;8.00;;;2.35;;
74867;SDS011;63419;42.262;12.210;2022-11-30T09:02:14;7.55;;;3.13;;
74867;SDS011;63419;42.262;12.210;2022-11-30T09:04:45;8.35;;;2.70;;
74867;SDS011;63419;42.262;12.210;2022-11-30T09:07:14;7.72;;;2.70;;
74867;SDS011;63419;42.262;12.210;2022-11-30T09:09:43;8.20;;;2.88;;
74867;SDS011;63419;42.262;12.210;2022-11-30T09:12:10;6.60;;;2.40;;
74867;SDS011;63419;42.262;12.210;2022-11-30T09:14:38;7.38;;;2.20;;
74867;SDS011;63419;42.262;12.210;2022-11-30T09:17:06;7.07;;;2.45;;
74867;SDS011;63419;42.262;12.210;2022-11-30T09:19:35;8.60;;;3.17;;
74867;SDS011;63419;42.262;12.210;2022-11-30T09:22:03;11.82;;;3.55;;
74867;SDS011;63419;42.262;12.210;2022-11-30T09:24:30;8.60;;;2.90;;
74867;SDS011;63419;42.262;12.210;2022-11-30T09:26:57;9.88;;;3.42;;
74867;SDS011;63419;42.262;12.210;2022-11-30T09:29:24;12.05;;;4.63;;
74867;SDS011;63419;42.262;12.210;2022-11-30T09:31:52;11.50;;;4.60;;
74867;SDS011;63419;42.262;12.210;2022-11-30T09:34:19;15.27;;;6.22;;
74867;SDS011;63419;42.262;12.210;2022-11-30T09:36:47;16.83;;;6.68;;
74867;SDS011;63419;42.262;12.210;2022-11-30T09:39:14;7.80;;;2.75;;
74867;SDS011;63419;42.262;12.210;2022-11-30T09:50:49;7.63;;;2.92;;
74867;SDS011;63419;42.262;12.210;2022-11-30T09:53:24;6.95;;;3.13;;
74867;SDS011;63419;42.262;12.210;2022-11-30T09:56:35;9.07;;;3.65;;
74867;SDS011;63419;42.262;12.210;2022-11-30T09:59:13;10.57;;;3.65;;
74867;SDS011;63419;42.262;12.210;2022-11-30T10:02:11;9.13;;;4.03;;
74867;SDS011;63419;42.262;12.210;2022-11-30T10:04:44;8.45;;;3.20;;
74867;SDS011;63419;42.262;12.210;2022-11-30T10:25:22;8.65;;;2.60;;
74867;SDS011;63419;42.262;12.210;2022-11-30T10:28:17;6.25;;;1.95;;
74867;SDS011;63419;42.262;12.210;2022-11-30T10:31:14;6.28;;;2.40;;
74867;SDS011;63419;42.262;12.210;2022-11-30T10:33:49;6.53;;;2.40;;
74867;SDS011;63419;42.262;12.210;2022-11-30T10:36:28;6.65;;;2.17;;
74867;SDS011;63419;42.262;12.210;2022-11-30T10:39:05;6.80;;;2.33;;
74867;SDS011;63419;42.262;12.210;2022-11-30T10:42:09;6.32;;;2.35;;
74867;SDS011;63419;42.262;12.210;2022-11-30T10:45:04;5.68;;;2.30;;
74867;SDS011;63419;42.262;12.210;2022-11-30T10:47:55;7.53;;;2.58;;
74867;SDS011;63419;42.262;12.210;2022-11-30T10:50:35;7.03;;;2.83;;
74867;SDS011;63419;42.262;12.210;2022-11-30T10:53:03;8.18;;;2.30;;
74867;SDS011;63419;42.262;12.210;2022-11-30T10:55:35;6.82;;;2.75;;
74867;SDS011;63419;42.262;12.210;2022-11-30T11:00:54;8.27;;;3.65;;
74867;SDS011;63419;42.262;12.210;2022-11-30T11:08:49;6.40;;;2.72;;
74867;SDS011;63419;42.262;12.210;2022-11-30T11:11:30;5.82;;;2.67;;
74867;SDS011;63419;42.262;12.210;2022-11-30T11:14:11;8.18;;;2.92;;
74867;SDS011;63419;42.262;12.210;2022-11-30T11:16:48;9.18;;;3.65;;
74867;SDS011;63419;42.262;12.210;2022-11-30T11:19:32;9.10;;;4.28;;
74867;SDS011;63419;42.262;12.210;2022-11-30T11:22:23;8.07;;;3.28;;
74867;SDS011;63419;42.262;12.210;2022-11-30T11:24:54;6.00;;;2.28;;
74867;SDS011;63419;42.262;12.210;2022-11-30T11:27:50;8.65;;;3.47;;
74867;SDS011;63419;42.262;12.210;2022-11-30T11:35:41;8.73;;;3.53;;
74867;SDS011;63419;42.262;12.210;2022-11-30T11:40:53;8.45;;;3.08;;
74867;SDS011;63419;42.262;12.210;2022-11-30T11:43:39;7.30;;;3.10;;
74867;SDS011;63419;42.262;12.210;2022-11-30T11:46:30;7.82;;;3.00;;
74867;SDS011;63419;42.262;12.210;2022-11-30T11:49:18;7.13;;;3.03;;
74867;SDS011;63419;42.262;12.210;2022-11-30T11:52:02;8.50;;;2.90;;
74867;SDS011;63419;42.262;12.210;2022-11-30T11:54:35;8.07;;;3.25;;
74867;SDS011;63419;42.262;12.210;2022-11-30T11:57:13;6.97;;;3.25;;
74867;SDS011;63419;42.262;12.210;2022-11-30T12:05:15;7.65;;;3.08;;
74867;SDS011;63419;42.262;12.210;2022-11-30T12:07:57;11.60;;;4.78;;
74867;SDS011;63419;42.262;12.210;2022-11-30T12:13:36;8.45;;;2.88;;
74867;SDS011;63419;42.262;12.210;2022-11-30T12:21:44;7.53;;;3.35;;
74867;SDS011;63419;42.262;12.210;2022-11-30T12:45:44;8.57;;;3.38;;
74867;SDS011;63419;42.262;12.210;2022-11-30T12:48:18;8.10;;;3.03;;
74867;SDS011;63419;42.262;12.210;2022-11-30T12:51:27;8.73;;;3.15;;
74867;SDS011;63419;42.262;12.210;2022-11-30T12:56:48;8.38;;;3.45;;
74867;SDS011;63419;42.262;12.210;2022-11-30T13:05:30;7.82;;;3.58;;
74867;SDS011;63419;42.262;12.210;2022-11-30T13:13:30;9.57;;;3.92;;
74867;SDS011;63419;42.262;12.210;2022-11-30T13:16:07;11.00;;;3.30;;
74867;SDS011;63419;42.262;12.210;2022-11-30T13:18:35;8.93;;;4.03;;
74867;SDS011;63419;42.262;12.210;2022-11-30T13:21:08;9.18;;;2.85;;
74867;SDS011;63419;42.262;12.210;2022-11-30T13:26:56;10.05;;;4.28;;
74867;SDS011;63419;42.262;12.210;2022-11-30T13:32:32;10.60;;;4.85;;
74867;SDS011;63419;42.262;12.210;2022-11-30T13:41:03;6.88;;;3.03;;
74867;SDS011;63419;42.262;12.210;2022-11-30T13:43:36;7.72;;;3.42;;
74867;SDS011;63419;42.262;12.210;2022-11-30T13:46:20;7.53;;;3.33;;
74867;SDS011;63419;42.262;12.210;2022-11-30T13:51:45;10.82;;;3.85;;
74867;SDS011;63419;42.262;12.210;2022-11-30T13:59:51;17.25;;;6.57;;
74867;SDS011;63419;42.262;12.210;2022-11-30T14:07:45;13.20;;;4.65;;
74867;SDS011;63419;42.262;12.210;2022-11-30T14:26:15;8.82;;;4.13;;
74867;SDS011;63419;42.262;12.210;2022-11-30T14:31:41;8.65;;;3.25;;
74867;SDS011;63419;42.262;12.210;2022-11-30T14:34:34;8.88;;;4.00;;
74867;SDS011;63419;42.262;12.210;2022-11-30T14:37:15;9.77;;;3.90;;
74867;SDS011;63419;42.262;12.210;2022-11-30T14:39:54;9.32;;;3.33;;
74867;SDS011;63419;42.262;12.210;2022-11-30T14:42:28;8.85;;;3.72;;
74867;SDS011;63419;42.262;12.210;2022-11-30T14:44:58;8.95;;;3.95;;
74867;SDS011;63419;42.262;12.210;2022-11-30T14:47:33;8.15;;;3.10;;
74867;SDS011;63419;42.262;12.210;2022-11-30T14:50:02;10.45;;;5.15;;
74867;SDS011;63419;42.262;12.210;2022-11-30T14:53:09;10.43;;;4.85;;
74867;SDS011;63419;42.262;12.210;2022-11-30T15:01:20;10.10;;;4.20;;
74867;SDS011;63419;42.262;12.210;2022-11-30T15:03:53;7.78;;;3.58;;
74867;SDS011;63419;42.262;12.210;2022-11-30T15:06:28;9.95;;;4.18;;
74867;SDS011;63419;42.262;12.210;2022-11-30T15:08:59;8.80;;;3.90;;
74867;SDS011;63419;42.262;12.210;2022-11-30T15:11:29;11.90;;;6.38;;
74867;SDS011;63419;42.262;12.210;2022-11-30T15:14:05;8.70;;;4.22;;
74867;SDS011;63419;42.262;12.210;2022-11-30T15:16:37;11.38;;;5.05;;
74867;SDS011;63419;42.262;12.210;2022-11-30T15:21:58;8.35;;;3.47;;
74867;SDS011;63419;42.262;12.210;2022-11-30T15:24:26;10.43;;;4.57;;
74867;SDS011;63419;42.262;12.210;2022-11-30T15:29:37;7.80;;;3.83;;
74867;SDS011;63419;42.262;12.210;2022-11-30T15:32:15;10.20;;;4.82;;
74867;SDS011;63419;42.262;12.210;2022-11-30T15:34:49;10.00;;;4.63;;
74867;SDS011;63419;42.262;12.210;2022-11-30T15:37:30;11.85;;;5.95;;
74867;SDS011;63419;42.262;12.210;2022-11-30T15:42:36;12.88;;;5.07;;
74867;SDS011;63419;42.262;12.210;2022-11-30T15:45:20;11.80;;;5.50;;
74867;SDS011;63419;42.262;12.210;2022-11-30T15:47:49;12.07;;;5.40;;
74867;SDS011;63419;42.262;12.210;2022-11-30T15:53:00;12.10;;;6.32;;
74867;SDS011;63419;42.262;12.210;2022-11-30T15:55:47;16.00;;;7.40;;
74867;SDS011;63419;42.262;12.210;2022-11-30T16:01:06;13.73;;;5.57;;
74867;SDS011;63419;42.262;12.210;2022-11-30T16:09:45;13.50;;;6.00;;
74867;SDS011;63419;42.262;12.210;2022-11-30T16:11:58;13.00;;;5.65;;
74867;SDS011;63419;42.262;12.210;2022-11-30T16:14:27;11.27;;;5.10;;
74867;SDS011;63419;42.262;12.210;2022-11-30T16:16:55;13.93;;;6.32;;
74867;SDS011;63419;42.262;12.210;2022-11-30T16:19:22;18.70;;;7.28;;
74867;SDS011;63419;42.262;12.210;2022-11-30T16:21:50;14.30;;;7.50;;
74867;SDS011;63419;42.262;12.210;2022-11-30T16:24:17;12.85;;;6.22;;
74867;SDS011;63419;42.262;12.210;2022-11-30T16:26:45;11.07;;;5.03;;
74867;SDS011;63419;42.262;12.210;2022-11-30T16:29:17;15.55;;;6.70;;
74867;SDS011;63419;42.262;12.210;2022-11-30T16:31:45;17.75;;;8.30;;
74867;SDS011;63419;42.262;12.210;2022-11-30T16:34:12;15.70;;;7.35;;
74867;SDS011;63419;42.262;12.210;2022-11-30T16:36:39;12.98;;;6.22;;
74867;SDS011;63419;42.262;12.210;2022-11-30T16:39:07;17.00;;;7.60;;
74867;SDS011;63419;42.262;12.210;2022-11-30T16:41:38;16.75;;;8.10;;
74867;SDS011;63419;42.262;12.210;2022-11-30T16:44:10;14.00;;;6.85;;
74867;SDS011;63419;42.262;12.210;2022-11-30T16:46:39;14.60;;;7.05;;
74867;SDS011;63419;42.262;12.210;2022-11-30T16:49:07;12.30;;;5.90;;
74867;SDS011;63419;42.262;12.210;2022-11-30T16:51:34;11.75;;;5.28;;
74867;SDS011;63419;42.262;12.210;2022-11-30T16:54:02;12.27;;;6.10;;
74867;SDS011;63419;42.262;12.210;2022-11-30T16:56:29;13.02;;;5.30;;
74867;SDS011;63419;42.262;12.210;2022-11-30T16:58:57;15.23;;;6.85;;
74867;SDS011;63419;42.262;12.210;2022-11-30T17:01:32;18.17;;;8.98;;
74867;SDS011;63419;42.262;12.210;2022-11-30T17:04:09;19.30;;;10.00;;
74867;SDS011;63419;42.262;12.210;2022-11-30T17:06:42;17.83;;;9.00;;
74867;SDS011;63419;42.262;12.210;2022-11-30T17:09:17;21.77;;;9.10;;
74867;SDS011;63419;42.262;12.210;2022-11-30T17:11:46;15.02;;;6.95;;
74867;SDS011;63419;42.262;12.210;2022-11-30T17:14:16;18.73;;;7.88;;
74867;SDS011;63419;42.262;12.210;2022-11-30T17:16:46;14.05;;;7.00;;
74867;SDS011;63419;42.262;12.210;2022-11-30T17:19:13;15.20;;;6.55;;
74867;SDS011;63419;42.262;12.210;2022-11-30T17:21:41;12.07;;;4.93;;
74867;SDS011;63419;42.262;12.210;2022-11-30T17:24:10;9.18;;;4.30;;
74867;SDS011;63419;42.262;12.210;2022-11-30T17:26:37;13.15;;;5.90;;
74867;SDS011;63419;42.262;12.210;2022-11-30T17:29:06;8.82;;;3.92;;
74867;SDS011;63419;42.262;12.210;2022-11-30T17:31:34;12.27;;;4.70;;
74867;SDS011;63419;42.262;12.210;2022-11-30T17:34:01;9.77;;;4.00;;
74867;SDS011;63419;42.262;12.210;2022-11-30T17:36:28;10.05;;;4.47;;
74867;SDS011;63419;42.262;12.210;2022-11-30T17:38:56;12.20;;;4.90;;
74867;SDS011;63419;42.262;12.210;2022-11-30T17:41:23;17.95;;;7.35;;
74867;SDS011;63419;42.262;12.210;2022-11-30T17:43:50;17.40;;;8.82;;
74867;SDS011;63419;42.262;12.210;2022-11-30T17:46:17;14.85;;;6.82;;
74867;SDS011;63419;42.262;12.210;2022-11-30T17:48:46;15.85;;;6.38;;
74867;SDS011;63419;42.262;12.210;2022-11-30T17:51:15;14.73;;;5.93;;
74867;SDS011;63419;42.262;12.210;2022-11-30T17:56:11;12.20;;;5.45;;
74867;SDS011;63419;42.262;12.210;2022-11-30T17:58:42;15.55;;;5.55;;
74867;SDS011;63419;42.262;12.210;2022-11-30T18:03:46;13.95;;;5.85;;
74867;SDS011;63419;42.262;12.210;2022-11-30T18:06:14;18.95;;;8.13;;
74867;SDS011;63419;42.262;12.210;2022-11-30T18:08:42;17.02;;;7.05;;
74867;SDS011;63419;42.262;12.210;2022-11-30T18:11:14;15.90;;;6.18;;
74867;SDS011;63419;42.262;12.210;2022-11-30T18:13:46;16.13;;;5.43;;
74867;SDS011;63419;42.262;12.210;2022-11-30T18:16:20;17.52;;;7.18;;
74867;SDS011;63419;42.262;12.210;2022-11-30T18:18:51;21.70;;;9.38;;
74867;SDS011;63419;42.262;12.210;2022-11-30T18:21:20;19.15;;;8.15;;
74867;SDS011;63419;42.262;12.210;2022-11-30T18:23:51;17.10;;;6.78;;
74867;SDS011;63419;42.262;12.210;2022-11-30T18:26:20;14.10;;;6.18;;
74867;SDS011;63419;42.262;12.210;2022-11-30T18:28:50;15.18;;;6.50;;
74867;SDS011;63419;42.262;12.210;2022-11-30T18:31:21;15.68;;;6.53;;
74867;SDS011;63419;42.262;12.210;2022-11-30T18:36:24;27.15;;;11.25;;
74867;SDS011;63419;42.262;12.210;2022-11-30T18:38:52;22.67;;;11.73;;
74867;SDS011;63419;42.262;12.210;2022-11-30T18:41:20;22.88;;;11.43;;